sensor_id;sensor_type;location;lat;lon;timestamp;temperature;humidity
75321;DHT22;63920;52.130;5.584;2023-02-28T00:00:33;3.00;99.90
75321;DHT22;63920;52.130;5.584;2023-02-28T00:02:58;3.00;99.90
75321;DHT22;63920;52.130;5.584;2023-02-28T00:05:26;3.10;99.90
75321;DHT22;63920;52.130;5.584;2023-02-28T00:07:52;3.10;99.90
75321;DHT22;63920;52.130;5.584;2023-02-28T00:10:20;3.10;99.90
75321;DHT22;63920;52.130;5.584;2023-02-28T00:12:53;3.10;99.90
75321;DHT22;63920;52.130;5.584;2023-02-28T00:15:20;3.10;99.90
75321;DHT22;63920;52.130;5.584;2023-02-28T00:17:45;3.10;99.90
75321;DHT22;63920;52.130;5.584;2023-02-28T00:20:13;3.20;99.90
75321;DHT22;63920;52.130;5.584;2023-02-28T00:22:47;3.20;99.90
75321;DHT22;63920;52.130;5.584;2023-02-28T00:25:15;3.20;99.90
75321;DHT22;63920;52.130;5.584;2023-02-28T00:27:41;3.20;99.90
75321;DHT22;63920;52.130;5.584;2023-02-28T00:30:10;3.20;99.90
75321;DHT22;63920;52.130;5.584;2023-02-28T00:32:36;3.20;99.90
75321;DHT22;63920;52.130;5.584;2023-02-28T00:35:02;3.20;99.90
75321;DHT22;63920;52.130;5.584;2023-02-28T00:37:28;3.20;99.90
75321;DHT22;63920;52.130;5.584;2023-02-28T00:39:54;3.30;99.90
75321;DHT22;63920;52.130;5.584;2023-02-28T00:42:19;3.30;99.90
75321;DHT22;63920;52.130;5.584;2023-02-28T00:44:45;3.30;99.90
75321;DHT22;63920;52.130;5.584;2023-02-28T00:47:11;3.30;99.90
75321;DHT22;63920;52.130;5.584;2023-02-28T00:49:36;3.30;99.90
75321;DHT22;63920;52.130;5.584;2023-02-28T00:52:02;3.30;99.90
75321;DHT22;63920;52.130;5.584;2023-02-28T00:54:28;3.30;99.90
75321;DHT22;63920;52.130;5.584;2023-02-28T00:56:53;3.30;99.90
75321;DHT22;63920;52.130;5.584;2023-02-28T00:59:19;3.30;99.90
75321;DHT22;63920;52.130;5.584;2023-02-28T01:01:46;3.30;99.90
75321;DHT22;63920;52.130;5.584;2023-02-28T01:04:12;3.30;99.90
75321;DHT22;63920;52.130;5.584;2023-02-28T01:06:38;3.30;99.90
75321;DHT22;63920;52.130;5.584;2023-02-28T01:09:04;3.40;99.90
75321;DHT22;63920;52.130;5.584;2023-02-28T01:11:31;3.30;99.90
75321;DHT22;63920;52.130;5.584;2023-02-28T01:13:56;3.40;99.90
75321;DHT22;63920;52.130;5.584;2023-02-28T01:16:22;3.40;99.90
75321;DHT22;63920;52.130;5.584;2023-02-28T01:18:48;3.40;99.90
75321;DHT22;63920;52.130;5.584;2023-02-28T01:21:16;3.40;99.90
75321;DHT22;63920;52.130;5.584;2023-02-28T01:23:42;3.40;99.90
75321;DHT22;63920;52.130;5.584;2023-02-28T01:26:21;3.40;99.90
75321;DHT22;63920;52.130;5.584;2023-02-28T01:28:49;3.40;99.90
75321;DHT22;63920;52.130;5.584;2023-02-28T01:31:14;3.40;99.90
75321;DHT22;63920;52.130;5.584;2023-02-28T01:33:44;3.40;99.90
75321;DHT22;63920;52.130;5.584;2023-02-28T01:36:16;3.40;99.90
75321;DHT22;63920;52.130;5.584;2023-02-28T01:38:43;3.40;99.90
75321;DHT22;63920;52.130;5.584;2023-02-28T01:41:17;3.40;99.90
75321;DHT22;63920;52.130;5.584;2023-02-28T01:46:09;3.40;99.90
75321;DHT22;63920;52.130;5.584;2023-02-28T01:48:38;3.40;99.90
75321;DHT22;63920;52.130;5.584;2023-02-28T01:51:10;3.40;99.90
75321;DHT22;63920;52.130;5.584;2023-02-28T01:53:45;3.40;99.90
75321;DHT22;63920;52.130;5.584;2023-02-28T01:56:13;3.50;99.90
75321;DHT22;63920;52.130;5.584;2023-02-28T01:58:47;3.40;99.90
75321;DHT22;63920;52.130;5.584;2023-02-28T02:01:12;3.40;99.90
75321;DHT22;63920;52.130;5.584;2023-02-28T02:03:50;3.40;99.90
75321;DHT22;63920;52.130;5.584;2023-02-28T02:06:28;3.50;99.90
75321;DHT22;63920;52.130;5.584;2023-02-28T02:08:55;3.50;99.90
75321;DHT22;63920;52.130;5.584;2023-02-28T02:11:22;3.50;99.90
75321;DHT22;63920;52.130;5.584;2023-02-28T02:34:08;3.50;99.90
75321;DHT22;63920;52.130;5.584;2023-02-28T02:36:24;3.50;99.90
75321;DHT22;63920;52.130;5.584;2023-02-28T02:39:02;3.50;99.90
75321;DHT22;63920;52.130;5.584;2023-02-28T02:41:46;3.60;99.90
75321;DHT22;63920;52.130;5.584;2023-02-28T02:47:13;3.60;99.90
75321;DHT22;63920;52.130;5.584;2023-02-28T02:49:43;3.60;99.90
75321;DHT22;63920;52.130;5.584;2023-02-28T02:52:12;3.50;99.90
75321;DHT22;63920;52.130;5.584;2023-02-28T02:54:45;3.60;99.90
75321;DHT22;63920;52.130;5.584;2023-02-28T02:57:18;3.60;99.90
75321;DHT22;63920;52.130;5.584;2023-02-28T02:59:46;3.60;99.90
75321;DHT22;63920;52.130;5.584;2023-02-28T03:02:15;3.60;99.90
75321;DHT22;63920;52.130;5.584;2023-02-28T03:04:46;3.60;99.90
75321;DHT22;63920;52.130;5.584;2023-02-28T03:07:13;3.60;99.90
75321;DHT22;63920;52.130;5.584;2023-02-28T03:09:39;3.60;99.90
75321;DHT22;63920;52.130;5.584;2023-02-28T03:12:09;3.60;99.90
75321;DHT22;63920;52.130;5.584;2023-02-28T03:18:06;3.60;99.90
75321;DHT22;63920;52.130;5.584;2023-02-28T03:21:01;3.70;99.90
75321;DHT22;63920;52.130;5.584;2023-02-28T03:23:42;3.60;99.90
75321;DHT22;63920;52.130;5.584;2023-02-28T03:26:17;3.60;99.90
75321;DHT22;63920;52.130;5.584;2023-02-28T03:29:37;3.60;99.90
75321;DHT22;63920;52.130;5.584;2023-02-28T03:31:54;3.60;99.90
75321;DHT22;63920;52.130;5.584;2023-02-28T03:34:42;3.50;99.90
75321;DHT22;63920;52.130;5.584;2023-02-28T03:37:18;3.50;99.90
75321;DHT22;63920;52.130;5.584;2023-02-28T03:39:49;3.50;99.90
75321;DHT22;63920;52.130;5.584;2023-02-28T03:42:19;3.50;99.90
75321;DHT22;63920;52.130;5.584;2023-02-28T03:44:50;3.50;99.90
75321;DHT22;63920;52.130;5.584;2023-02-28T03:47:32;3.50;99.90
75321;DHT22;63920;52.130;5.584;2023-02-28T03:50:05;3.40;99.90
75321;DHT22;63920;52.130;5.584;2023-02-28T03:52:35;3.50;99.90
75321;DHT22;63920;52.130;5.584;2023-02-28T03:55:07;3.50;99.90
75321;DHT22;63920;52.130;5.584;2023-02-28T03:57:56;3.40;99.90
75321;DHT22;63920;52.130;5.584;2023-02-28T04:00:46;3.40;99.90
75321;DHT22;63920;52.130;5.584;2023-02-28T04:03:12;3.40;99.90
75321;DHT22;63920;52.130;5.584;2023-02-28T04:05:53;3.40;99.90
75321;DHT22;63920;52.130;5.584;2023-02-28T04:08:19;3.30;99.90
75321;DHT22;63920;52.130;5.584;2023-02-28T04:10:50;3.30;99.90
75321;DHT22;63920;52.130;5.584;2023-02-28T04:13:16;3.30;99.90
75321;DHT22;63920;52.130;5.584;2023-02-28T04:15:42;3.30;99.90
75321;DHT22;63920;52.130;5.584;2023-02-28T04:18:08;3.20;99.90
75321;DHT22;63920;52.130;5.584;2023-02-28T04:20:33;3.30;99.90
75321;DHT22;63920;52.130;5.584;2023-02-28T04:22:59;3.20;99.90
75321;DHT22;63920;52.130;5.584;2023-02-28T04:25:24;3.20;99.90
75321;DHT22;63920;52.130;5.584;2023-02-28T04:27:50;3.50;99.90
75321;DHT22;63920;52.130;5.584;2023-02-28T04:30:16;3.20;99.90
75321;DHT22;63920;52.130;5.584;2023-02-28T04:32:41;3.20;99.90
75321;DHT22;63920;52.130;5.584;2023-02-28T04:35:07;3.20;99.90
75321;DHT22;63920;52.130;5.584;2023-02-28T04:37:33;3.10;99.90
75321;DHT22;63920;52.130;5.584;2023-02-28T04:40:00;3.30;99.90
75321;DHT22;63920;52.130;5.584;2023-02-28T04:42:26;3.10;99.90
75321;DHT22;63920;52.130;5.584;2023-02-28T04:44:52;3.10;99.90
75321;DHT22;63920;52.130;5.584;2023-02-28T04:47:17;3.00;99.90
75321;DHT22;63920;52.130;5.584;2023-02-28T04:49:43;3.00;99.90
75321;DHT22;63920;52.130;5.584;2023-02-28T04:52:09;3.00;99.90
75321;DHT22;63920;52.130;5.584;2023-02-28T04:54:35;2.90;99.90
75321;DHT22;63920;52.130;5.584;2023-02-28T04:57:01;2.90;99.90
75321;DHT22;63920;52.130;5.584;2023-02-28T04:59:27;2.70;99.90
75321;DHT22;63920;52.130;5.584;2023-02-28T05:01:52;2.90;99.90
75321;DHT22;63920;52.130;5.584;2023-02-28T05:04:18;3.00;99.90
75321;DHT22;63920;52.130;5.584;2023-02-28T05:06:43;2.90;99.90
75321;DHT22;63920;52.130;5.584;2023-02-28T05:09:09;2.90;99.90
75321;DHT22;63920;52.130;5.584;2023-02-28T05:11:36;2.90;99.90
75321;DHT22;63920;52.130;5.584;2023-02-28T05:14:06;2.90;99.90
75321;DHT22;63920;52.130;5.584;2023-02-28T05:16:32;2.80;99.90
75321;DHT22;63920;52.130;5.584;2023-02-28T05:18:58;2.80;99.90
75321;DHT22;63920;52.130;5.584;2023-02-28T05:21:29;2.80;99.90
75321;DHT22;63920;52.130;5.584;2023-02-28T05:23:56;2.80;99.90
75321;DHT22;63920;52.130;5.584;2023-02-28T05:26:23;2.90;99.90
75321;DHT22;63920;52.130;5.584;2023-02-28T05:28:49;2.80;99.90
75321;DHT22;63920;52.130;5.584;2023-02-28T05:31:14;2.80;99.90
75321;DHT22;63920;52.130;5.584;2023-02-28T05:33:40;2.80;99.90
75321;DHT22;63920;52.130;5.584;2023-02-28T05:36:06;2.60;99.90
75321;DHT22;63920;52.130;5.584;2023-02-28T05:38:32;2.50;99.90
75321;DHT22;63920;52.130;5.584;2023-02-28T05:40:58;2.50;99.90
75321;DHT22;63920;52.130;5.584;2023-02-28T05:43:23;2.50;99.90
75321;DHT22;63920;52.130;5.584;2023-02-28T05:45:49;2.60;99.90
75321;DHT22;63920;52.130;5.584;2023-02-28T05:48:15;2.60;99.90
75321;DHT22;63920;52.130;5.584;2023-02-28T05:50:40;2.70;99.90
75321;DHT22;63920;52.130;5.584;2023-02-28T05:53:08;2.80;99.90
75321;DHT22;63920;52.130;5.584;2023-02-28T05:55:33;2.70;99.90
75321;DHT22;63920;52.130;5.584;2023-02-28T05:58:01;2.70;99.90
75321;DHT22;63920;52.130;5.584;2023-02-28T06:00:26;2.30;99.90
75321;DHT22;63920;52.130;5.584;2023-02-28T06:02:53;2.30;99.90
75321;DHT22;63920;52.130;5.584;2023-02-28T06:05:21;2.20;99.90
75321;DHT22;63920;52.130;5.584;2023-02-28T06:07:47;2.20;99.90
75321;DHT22;63920;52.130;5.584;2023-02-28T06:10:13;2.20;99.90
75321;DHT22;63920;52.130;5.584;2023-02-28T06:12:39;2.20;99.90
75321;DHT22;63920;52.130;5.584;2023-02-28T06:15:07;2.20;99.90
75321;DHT22;63920;52.130;5.584;2023-02-28T06:17:33;2.20;99.90
75321;DHT22;63920;52.130;5.584;2023-02-28T06:19:58;2.30;99.90
75321;DHT22;63920;52.130;5.584;2023-02-28T06:22:24;2.30;99.90
75321;DHT22;63920;52.130;5.584;2023-02-28T06:24:50;2.20;99.90
75321;DHT22;63920;52.130;5.584;2023-02-28T06:27:15;2.60;99.90
75321;DHT22;63920;52.130;5.584;2023-02-28T06:29:41;2.20;99.90
75321;DHT22;63920;52.130;5.584;2023-02-28T06:32:07;2.30;99.90
75321;DHT22;63920;52.130;5.584;2023-02-28T06:34:32;2.20;99.90
75321;DHT22;63920;52.130;5.584;2023-02-28T06:36:59;2.20;99.90
75321;DHT22;63920;52.130;5.584;2023-02-28T06:39:28;2.20;99.90
75321;DHT22;63920;52.130;5.584;2023-02-28T06:41:54;2.40;99.90
75321;DHT22;63920;52.130;5.584;2023-02-28T06:44:20;2.40;99.90
75321;DHT22;63920;52.130;5.584;2023-02-28T06:46:46;2.50;99.90
75321;DHT22;63920;52.130;5.584;2023-02-28T06:49:12;2.50;99.90
75321;DHT22;63920;52.130;5.584;2023-02-28T06:51:39;2.60;99.90
75321;DHT22;63920;52.130;5.584;2023-02-28T06:54:07;2.40;99.90
75321;DHT22;63920;52.130;5.584;2023-02-28T06:56:36;2.40;99.90
75321;DHT22;63920;52.130;5.584;2023-02-28T06:59:02;2.50;99.90
75321;DHT22;63920;52.130;5.584;2023-02-28T07:01:29;2.50;99.90
75321;DHT22;63920;52.130;5.584;2023-02-28T07:03:54;2.60;99.90
75321;DHT22;63920;52.130;5.584;2023-02-28T07:06:24;2.60;99.90
75321;DHT22;63920;52.130;5.584;2023-02-28T07:08:50;2.60;99.90
75321;DHT22;63920;52.130;5.584;2023-02-28T07:11:17;2.60;99.90
75321;DHT22;63920;52.130;5.584;2023-02-28T07:13:43;2.60;99.90
75321;DHT22;63920;52.130;5.584;2023-02-28T07:16:10;2.60;99.90
75321;DHT22;63920;52.130;5.584;2023-02-28T07:18:37;2.60;99.90
75321;DHT22;63920;52.130;5.584;2023-02-28T07:21:04;2.60;99.90
75321;DHT22;63920;52.130;5.584;2023-02-28T07:23:30;2.60;99.90
75321;DHT22;63920;52.130;5.584;2023-02-28T07:25:56;2.60;99.90
75321;DHT22;63920;52.130;5.584;2023-02-28T07:28:22;2.70;99.90
75321;DHT22;63920;52.130;5.584;2023-02-28T07:30:47;2.70;99.90
75321;DHT22;63920;52.130;5.584;2023-02-28T07:33:13;2.60;99.90
75321;DHT22;63920;52.130;5.584;2023-02-28T07:35:39;2.70;99.90
75321;DHT22;63920;52.130;5.584;2023-02-28T07:38:05;2.70;99.90
75321;DHT22;63920;52.130;5.584;2023-02-28T07:40:33;2.70;99.90
75321;DHT22;63920;52.130;5.584;2023-02-28T07:43:00;2.70;99.90
75321;DHT22;63920;52.130;5.584;2023-02-28T07:45:26;2.70;99.90
75321;DHT22;63920;52.130;5.584;2023-02-28T07:47:52;2.70;99.90
75321;DHT22;63920;52.130;5.584;2023-02-28T07:50:18;2.70;99.90
75321;DHT22;63920;52.130;5.584;2023-02-28T07:52:43;2.70;99.90
75321;DHT22;63920;52.130;5.584;2023-02-28T07:55:09;2.80;99.90
75321;DHT22;63920;52.130;5.584;2023-02-28T07:57:35;2.80;99.90
75321;DHT22;63920;52.130;5.584;2023-02-28T08:00:04;2.80;99.90
75321;DHT22;63920;52.130;5.584;2023-02-28T08:02:30;2.80;99.90
75321;DHT22;63920;52.130;5.584;2023-02-28T08:04:55;2.80;99.90
75321;DHT22;63920;52.130;5.584;2023-02-28T08:07:21;2.90;99.90
75321;DHT22;63920;52.130;5.584;2023-02-28T08:09:47;2.90;99.90
75321;DHT22;63920;52.130;5.584;2023-02-28T08:12:13;2.90;99.90
75321;DHT22;63920;52.130;5.584;2023-02-28T08:14:39;2.90;99.90
75321;DHT22;63920;52.130;5.584;2023-02-28T08:17:05;3.00;99.90
75321;DHT22;63920;52.130;5.584;2023-02-28T08:19:31;3.50;99.90
75321;DHT22;63920;52.130;5.584;2023-02-28T08:21:57;3.10;99.90
75321;DHT22;63920;52.130;5.584;2023-02-28T08:24:24;3.10;99.90
75321;DHT22;63920;52.130;5.584;2023-02-28T08:26:50;3.10;99.90
75321;DHT22;63920;52.130;5.584;2023-02-28T08:29:15;3.20;99.90
75321;DHT22;63920;52.130;5.584;2023-02-28T08:31:41;3.40;99.90
75321;DHT22;63920;52.130;5.584;2023-02-28T08:34:12;3.20;99.90
75321;DHT22;63920;52.130;5.584;2023-02-28T08:36:39;3.30;99.90
75321;DHT22;63920;52.130;5.584;2023-02-28T08:39:05;3.20;99.90
75321;DHT22;63920;52.130;5.584;2023-02-28T08:41:31;3.30;99.90
75321;DHT22;63920;52.130;5.584;2023-02-28T08:43:58;3.20;99.90
75321;DHT22;63920;52.130;5.584;2023-02-28T08:46:26;3.30;99.90
75321;DHT22;63920;52.130;5.584;2023-02-28T08:48:53;3.30;99.90
75321;DHT22;63920;52.130;5.584;2023-02-28T08:51:20;3.40;99.90
75321;DHT22;63920;52.130;5.584;2023-02-28T08:53:52;3.50;99.90
75321;DHT22;63920;52.130;5.584;2023-02-28T08:56:19;3.60;99.90
75321;DHT22;63920;52.130;5.584;2023-02-28T08:58:46;3.60;99.90
75321;DHT22;63920;52.130;5.584;2023-02-28T09:01:18;3.70;99.90
75321;DHT22;63920;52.130;5.584;2023-02-28T09:03:44;3.80;99.90
75321;DHT22;63920;52.130;5.584;2023-02-28T09:06:12;3.80;99.90
75321;DHT22;63920;52.130;5.584;2023-02-28T09:08:38;3.90;99.90
75321;DHT22;63920;52.130;5.584;2023-02-28T09:11:04;4.00;99.90
75321;DHT22;63920;52.130;5.584;2023-02-28T09:13:30;4.00;99.90
75321;DHT22;63920;52.130;5.584;2023-02-28T09:15:58;4.00;99.90
75321;DHT22;63920;52.130;5.584;2023-02-28T09:18:24;4.10;99.90
75321;DHT22;63920;52.130;5.584;2023-02-28T09:20:50;4.10;99.90
75321;DHT22;63920;52.130;5.584;2023-02-28T09:23:16;4.30;99.90
75321;DHT22;63920;52.130;5.584;2023-02-28T09:25:48;4.40;99.90
75321;DHT22;63920;52.130;5.584;2023-02-28T09:28:14;4.50;97.80
75321;DHT22;63920;52.130;5.584;2023-02-28T09:30:41;4.50;97.00
75321;DHT22;63920;52.130;5.584;2023-02-28T09:33:10;4.50;99.90
75321;DHT22;63920;52.130;5.584;2023-02-28T09:35:35;4.50;99.50
75321;DHT22;63920;52.130;5.584;2023-02-28T09:38:06;4.60;99.90
75321;DHT22;63920;52.130;5.584;2023-02-28T09:40:35;4.60;97.60
75321;DHT22;63920;52.130;5.584;2023-02-28T09:43:02;4.60;98.60
75321;DHT22;63920;52.130;5.584;2023-02-28T09:45:40;4.70;99.20
75321;DHT22;63920;52.130;5.584;2023-02-28T09:48:14;4.90;98.10
75321;DHT22;63920;52.130;5.584;2023-02-28T09:50:45;5.10;98.40
75321;DHT22;63920;52.130;5.584;2023-02-28T09:53:32;5.20;97.80
75321;DHT22;63920;52.130;5.584;2023-02-28T09:56:07;5.30;96.20
75321;DHT22;63920;52.130;5.584;2023-02-28T09:58:44;5.40;91.70
75321;DHT22;63920;52.130;5.584;2023-02-28T10:01:17;5.40;94.80
75321;DHT22;63920;52.130;5.584;2023-02-28T10:03:56;5.30;80.60
75321;DHT22;63920;52.130;5.584;2023-02-28T10:06:28;5.50;84.00
75321;DHT22;63920;52.130;5.584;2023-02-28T10:09:03;5.60;76.30
75321;DHT22;63920;52.130;5.584;2023-02-28T10:11:32;5.60;77.20
75321;DHT22;63920;52.130;5.584;2023-02-28T10:16:40;5.50;69.60
75321;DHT22;63920;52.130;5.584;2023-02-28T10:19:17;5.60;79.30
75321;DHT22;63920;52.130;5.584;2023-02-28T10:27:28;5.80;86.00
75321;DHT22;63920;52.130;5.584;2023-02-28T10:29:56;5.90;81.30
75321;DHT22;63920;52.130;5.584;2023-02-28T10:32:31;6.00;71.90
75321;DHT22;63920;52.130;5.584;2023-02-28T10:35:24;6.00;84.30
75321;DHT22;63920;52.130;5.584;2023-02-28T10:37:57;6.10;90.60
75321;DHT22;63920;52.130;5.584;2023-02-28T10:43:00;6.00;82.00
75321;DHT22;63920;52.130;5.584;2023-02-28T10:45:33;6.10;82.70
75321;DHT22;63920;52.130;5.584;2023-02-28T10:51:05;6.10;72.90
75321;DHT22;63920;52.130;5.584;2023-02-28T10:53:47;6.20;76.40
75321;DHT22;63920;52.130;5.584;2023-02-28T10:56:19;6.20;67.70
75321;DHT22;63920;52.130;5.584;2023-02-28T11:01:39;6.40;76.20
75321;DHT22;63920;52.130;5.584;2023-02-28T11:04:33;6.50;71.90
75321;DHT22;63920;52.130;5.584;2023-02-28T11:07:04;6.20;61.00
75321;DHT22;63920;52.130;5.584;2023-02-28T11:09:37;6.40;71.90
75321;DHT22;63920;52.130;5.584;2023-02-28T11:12:16;6.50;62.20
75321;DHT22;63920;52.130;5.584;2023-02-28T11:14:59;6.40;71.40
75321;DHT22;63920;52.130;5.584;2023-02-28T11:17:28;6.50;67.00
75321;DHT22;63920;52.130;5.584;2023-02-28T11:20:06;6.70;80.80
75321;DHT22;63920;52.130;5.584;2023-02-28T11:22:37;6.80;75.40
75321;DHT22;63920;52.130;5.584;2023-02-28T11:27:53;7.10;74.00
75321;DHT22;63920;52.130;5.584;2023-02-28T11:30:26;7.00;71.20
75321;DHT22;63920;52.130;5.584;2023-02-28T11:32:52;7.00;63.50
75321;DHT22;63920;52.130;5.584;2023-02-28T11:35:36;7.00;67.70
75321;DHT22;63920;52.130;5.584;2023-02-28T11:38:08;7.00;70.80
75321;DHT22;63920;52.130;5.584;2023-02-28T11:44:20;7.00;65.00
75321;DHT22;63920;52.130;5.584;2023-02-28T11:52:05;7.00;70.00
75321;DHT22;63920;52.130;5.584;2023-02-28T12:03:31;7.00;78.60
75321;DHT22;63920;52.130;5.584;2023-02-28T12:06:30;7.10;67.20
75321;DHT22;63920;52.130;5.584;2023-02-28T12:09:12;6.90;61.20
75321;DHT22;63920;52.130;5.584;2023-02-28T12:14:45;6.90;71.50
75321;DHT22;63920;52.130;5.584;2023-02-28T12:20:02;7.00;68.40
75321;DHT22;63920;52.130;5.584;2023-02-28T12:27:28;7.00;68.80
75321;DHT22;63920;52.130;5.584;2023-02-28T12:30:47;7.10;65.80
75321;DHT22;63920;52.130;5.584;2023-02-28T12:32:49;7.20;69.30
75321;DHT22;63920;52.130;5.584;2023-02-28T12:35:31;7.20;82.20
75321;DHT22;63920;52.130;5.584;2023-02-28T12:38:04;7.30;67.10
75321;DHT22;63920;52.130;5.584;2023-02-28T12:40:50;7.20;62.60
75321;DHT22;63920;52.130;5.584;2023-02-28T12:43:20;7.30;77.10
75321;DHT22;63920;52.130;5.584;2023-02-28T12:45:55;7.40;67.10
75321;DHT22;63920;52.130;5.584;2023-02-28T12:48:40;7.40;65.40
75321;DHT22;63920;52.130;5.584;2023-02-28T12:51:08;7.50;69.30
75321;DHT22;63920;52.130;5.584;2023-02-28T12:59:48;7.60;66.10
75321;DHT22;63920;52.130;5.584;2023-02-28T13:10:46;7.60;61.30
75321;DHT22;63920;52.130;5.584;2023-02-28T13:13:18;7.60;58.50
75321;DHT22;63920;52.130;5.584;2023-02-28T13:16:09;7.60;67.60
75321;DHT22;63920;52.130;5.584;2023-02-28T13:18:36;7.60;59.80
75321;DHT22;63920;52.130;5.584;2023-02-28T13:21:09;7.70;58.30
75321;DHT22;63920;52.130;5.584;2023-02-28T13:26:12;7.60;59.00
75321;DHT22;63920;52.130;5.584;2023-02-28T13:31:24;7.60;64.90
75321;DHT22;63920;52.130;5.584;2023-02-28T13:38:54;7.70;59.40
75321;DHT22;63920;52.130;5.584;2023-02-28T13:44:19;7.70;66.50
75321;DHT22;63920;52.130;5.584;2023-02-28T13:51:52;7.80;62.10
75321;DHT22;63920;52.130;5.584;2023-02-28T13:54:24;7.70;57.70
75321;DHT22;63920;52.130;5.584;2023-02-28T13:57:01;7.70;61.30
75321;DHT22;63920;52.130;5.584;2023-02-28T13:59:46;7.70;59.60
75321;DHT22;63920;52.130;5.584;2023-02-28T14:05:01;7.60;58.70
75321;DHT22;63920;52.130;5.584;2023-02-28T14:07:38;7.50;58.80
75321;DHT22;63920;52.130;5.584;2023-02-28T14:10:07;7.60;62.40
75321;DHT22;63920;52.130;5.584;2023-02-28T14:13:01;7.60;61.10
75321;DHT22;63920;52.130;5.584;2023-02-28T14:15:46;7.70;62.80
75321;DHT22;63920;52.130;5.584;2023-02-28T14:18:29;7.70;60.40
75321;DHT22;63920;52.130;5.584;2023-02-28T14:21:26;7.80;60.70
75321;DHT22;63920;52.130;5.584;2023-02-28T14:30:03;7.90;60.70
75321;DHT22;63920;52.130;5.584;2023-02-28T14:37:51;7.80;61.80
75321;DHT22;63920;52.130;5.584;2023-02-28T14:40:27;7.90;64.90
75321;DHT22;63920;52.130;5.584;2023-02-28T14:42:59;7.90;57.20
75321;DHT22;63920;52.130;5.584;2023-02-28T14:45:32;7.80;57.90
75321;DHT22;63920;52.130;5.584;2023-02-28T14:47:59;7.80;60.70
75321;DHT22;63920;52.130;5.584;2023-02-28T14:50:34;7.80;58.00
75321;DHT22;63920;52.130;5.584;2023-02-28T14:53:01;7.70;59.90
75321;DHT22;63920;52.130;5.584;2023-02-28T14:55:33;7.80;63.00
75321;DHT22;63920;52.130;5.584;2023-02-28T14:58:01;7.80;61.50
75321;DHT22;63920;52.130;5.584;2023-02-28T15:00:36;7.70;60.60
75321;DHT22;63920;52.130;5.584;2023-02-28T15:03:33;7.70;61.30
75321;DHT22;63920;52.130;5.584;2023-02-28T15:06:04;7.60;58.00
75321;DHT22;63920;52.130;5.584;2023-02-28T15:08:30;7.70;61.70
75321;DHT22;63920;52.130;5.584;2023-02-28T15:11:20;7.70;62.80
75321;DHT22;63920;52.130;5.584;2023-02-28T15:13:53;7.60;57.00
75321;DHT22;63920;52.130;5.584;2023-02-28T15:16:24;7.40;58.50
75321;DHT22;63920;52.130;5.584;2023-02-28T15:22:17;7.50;85.50
75321;DHT22;63920;52.130;5.584;2023-02-28T15:24:47;7.50;58.60
75321;DHT22;63920;52.130;5.584;2023-02-28T15:27:27;7.40;57.70
75321;DHT22;63920;52.130;5.584;2023-02-28T15:30:24;7.30;57.00
75321;DHT22;63920;52.130;5.584;2023-02-28T15:35:37;7.40;57.50
75321;DHT22;63920;52.130;5.584;2023-02-28T15:38:08;7.40;57.80
75321;DHT22;63920;52.130;5.584;2023-02-28T15:40:42;7.30;56.50
75321;DHT22;63920;52.130;5.584;2023-02-28T15:43:15;7.40;59.70
75321;DHT22;63920;52.130;5.584;2023-02-28T15:45:45;7.40;60.00
75321;DHT22;63920;52.130;5.584;2023-02-28T15:48:19;7.30;58.50
75321;DHT22;63920;52.130;5.584;2023-02-28T15:54:01;7.30;58.00
75321;DHT22;63920;52.130;5.584;2023-02-28T15:56:32;7.30;67.10
75321;DHT22;63920;52.130;5.584;2023-02-28T15:59:01;7.30;57.70
75321;DHT22;63920;52.130;5.584;2023-02-28T16:01:33;7.30;58.20
75321;DHT22;63920;52.130;5.584;2023-02-28T16:04:19;7.10;59.40
75321;DHT22;63920;52.130;5.584;2023-02-28T16:06:45;7.20;60.00
75321;DHT22;63920;52.130;5.584;2023-02-28T16:09:16;7.20;60.60
75321;DHT22;63920;52.130;5.584;2023-02-28T16:11:49;7.20;58.40
75321;DHT22;63920;52.130;5.584;2023-02-28T16:14:24;7.20;67.60
75321;DHT22;63920;52.130;5.584;2023-02-28T16:16:54;7.20;70.00
75321;DHT22;63920;52.130;5.584;2023-02-28T16:19:21;7.20;61.20
75321;DHT22;63920;52.130;5.584;2023-02-28T16:21:47;7.10;78.20
75321;DHT22;63920;52.130;5.584;2023-02-28T16:24:13;7.10;72.90
75321;DHT22;63920;52.130;5.584;2023-02-28T16:26:46;7.10;59.70
75321;DHT22;63920;52.130;5.584;2023-02-28T16:29:23;7.10;59.00
75321;DHT22;63920;52.130;5.584;2023-02-28T16:31:50;7.10;67.10
75321;DHT22;63920;52.130;5.584;2023-02-28T16:34:15;7.00;83.70
75321;DHT22;63920;52.130;5.584;2023-02-28T16:36:41;7.10;73.20
75321;DHT22;63920;52.130;5.584;2023-02-28T16:39:06;7.10;77.40
75321;DHT22;63920;52.130;5.584;2023-02-28T16:41:34;7.10;70.20
75321;DHT22;63920;52.130;5.584;2023-02-28T16:43:59;6.90;77.40
75321;DHT22;63920;52.130;5.584;2023-02-28T16:46:33;6.80;85.30
75321;DHT22;63920;52.130;5.584;2023-02-28T16:48:58;6.80;91.50
75321;DHT22;63920;52.130;5.584;2023-02-28T16:51:24;6.70;84.60
75321;DHT22;63920;52.130;5.584;2023-02-28T16:53:50;6.70;83.90
75321;DHT22;63920;52.130;5.584;2023-02-28T16:56:23;6.60;88.80
75321;DHT22;63920;52.130;5.584;2023-02-28T16:58:54;6.60;86.50
75321;DHT22;63920;52.130;5.584;2023-02-28T17:01:21;6.50;87.00
75321;DHT22;63920;52.130;5.584;2023-02-28T17:03:47;6.70;94.10
75321;DHT22;63920;52.130;5.584;2023-02-28T17:06:22;6.50;90.50
75321;DHT22;63920;52.130;5.584;2023-02-28T17:08:49;6.30;90.70
75321;DHT22;63920;52.130;5.584;2023-02-28T17:11:15;6.30;90.60
75321;DHT22;63920;52.130;5.584;2023-02-28T17:13:41;6.30;92.10
75321;DHT22;63920;52.130;5.584;2023-02-28T17:16:29;6.30;92.40
75321;DHT22;63920;52.130;5.584;2023-02-28T17:19:01;6.30;93.50
75321;DHT22;63920;52.130;5.584;2023-02-28T17:21:27;6.30;93.30
75321;DHT22;63920;52.130;5.584;2023-02-28T17:23:53;6.20;93.80
75321;DHT22;63920;52.130;5.584;2023-02-28T17:26:20;6.10;94.30
75321;DHT22;63920;52.130;5.584;2023-02-28T17:28:47;6.20;94.70
75321;DHT22;63920;52.130;5.584;2023-02-28T17:31:13;6.10;95.10
75321;DHT22;63920;52.130;5.584;2023-02-28T17:33:38;6.00;94.60
75321;DHT22;63920;52.130;5.584;2023-02-28T17:36:05;6.00;95.60
75321;DHT22;63920;52.130;5.584;2023-02-28T17:38:30;6.00;96.30
75321;DHT22;63920;52.130;5.584;2023-02-28T17:40:56;5.90;96.20
75321;DHT22;63920;52.130;5.584;2023-02-28T17:43:26;5.90;97.20
75321;DHT22;63920;52.130;5.584;2023-02-28T17:45:52;6.40;98.00
75321;DHT22;63920;52.130;5.584;2023-02-28T17:48:18;5.90;99.90
75321;DHT22;63920;52.130;5.584;2023-02-28T17:50:44;5.90;98.80
75321;DHT22;63920;52.130;5.584;2023-02-28T17:53:10;5.80;99.00
75321;DHT22;63920;52.130;5.584;2023-02-28T17:55:37;5.80;98.80
75321;DHT22;63920;52.130;5.584;2023-02-28T17:58:03;5.80;98.80
75321;DHT22;63920;52.130;5.584;2023-02-28T18:00:31;5.70;99.00
75321;DHT22;63920;52.130;5.584;2023-02-28T18:03:00;5.70;99.10
75321;DHT22;63920;52.130;5.584;2023-02-28T18:05:26;5.60;99.50
75321;DHT22;63920;52.130;5.584;2023-02-28T18:08:02;5.60;99.40
75321;DHT22;63920;52.130;5.584;2023-02-28T18:10:28;5.60;99.50
75321;DHT22;63920;52.130;5.584;2023-02-28T18:12:58;5.50;99.90
75321;DHT22;63920;52.130;5.584;2023-02-28T18:15:24;5.50;99.90